Time;durP1;ratioP1;P1;durP2;ratioP2;P2;SDS_P1;SDS_P2;PMS_P1;PMS_P2;Temp;Humidity;BMP_temperature;BMP_pressure;BME280_temperature;BME280_humidity;BME280_pressure;Samples;Min_cycle;Max_cycle;Signal;HPM_P1;HPM_P2
2021/07/12 00:00:07;;;;;;;1999.90;999.90;;;18.40;99.90;;;;;;5033963;28;20411;-66
2021/07/12 00:02:33;;;;;;;1999.90;999.90;;;18.50;99.90;;;;;;5034052;28;20177;-67
2021/07/12 00:04:59;;;;;;;1999.90;999.90;;;18.50;99.90;;;;;;5033599;28;20461;-68
2021/07/12 00:07:24;;;;;;;1999.90;999.90;;;18.40;99.90;;;;;;5033517;28;20203;-68
2021/07/12 00:09:50;;;;;;;1999.90;999.90;;;18.40;99.90;;;;;;5033471;28;20436;-68
2021/07/12 00:12:16;;;;;;;1999.90;999.90;;;18.40;99.90;;;;;;5033456;28;20175;-66
2021/07/12 00:14:42;;;;;;;1999.90;999.90;;;18.40;99.90;;;;;;5033166;28;20252;-68
2021/07/12 00:17:07;;;;;;;1999.90;999.90;;;18.40;99.90;;;;;;5033542;28;20260;-68
2021/07/12 00:19:33;;;;;;;1999.90;999.90;;;18.30;99.90;;;;;;5033276;28;20435;-67
2021/07/12 00:21:58;;;;;;;1999.90;999.90;;;18.30;99.90;;;;;;5033309;28;20231;-68
2021/07/12 00:24:24;;;;;;;1999.90;999.90;;;18.30;99.90;;;;;;5015287;28;20182;-67
2021/07/12 00:26:50;;;;;;;1999.90;999.90;;;18.20;99.90;;;;;;5033081;28;20196;-66
2021/07/12 00:29:16;;;;;;;1999.90;999.90;;;18.20;99.90;;;;;;5032998;28;20244;-67
2021/07/12 00:31:42;;;;;;;1999.90;999.90;;;18.10;99.90;;;;;;5033085;28;20168;-66
2021/07/12 00:34:07;;;;;;;1999.90;999.90;;;18.10;99.90;;;;;;5032036;28;20458;-66
2021/07/12 00:36:33;;;;;;;1999.90;999.90;;;18.00;99.90;;;;;;5033056;28;20171;-66
2021/07/12 00:38:58;;;;;;;1999.90;999.90;;;18.10;99.90;;;;;;5032958;28;20191;-66
2021/07/12 00:41:24;;;;;;;1999.90;999.90;;;18.10;99.90;;;;;;5032923;28;20161;-66
2021/07/12 00:43:50;;;;;;;1999.90;999.90;;;18.00;99.90;;;;;;5032719;28;20201;-66
2021/07/12 00:46:15;;;;;;;1999.90;999.90;;;18.00;99.90;;;;;;5032642;28;20214;-66
2021/07/12 00:48:41;;;;;;;1999.90;999.90;;;17.90;99.90;;;;;;5032753;28;20662;-67
2021/07/12 00:51:06;;;;;;;1999.90;999.90;;;17.70;99.90;;;;;;5032780;28;20256;-66
2021/07/12 00:53:32;;;;;;;1999.90;999.90;;;17.70;99.90;;;;;;5032748;28;20173;-66
2021/07/12 00:55:58;;;;;;;1999.90;999.90;;;17.50;99.90;;;;;;5032383;28;20210;-67
2021/07/12 00:58:26;;;;;;;1999.90;999.90;;;17.60;99.90;;;;;;5032579;28;20692;-67
2021/07/12 01:00:55;;;;;;;1999.90;999.90;;;17.60;99.90;;;;;;5032702;28;20374;-66
2021/07/12 01:03:22;;;;;;;1999.90;999.90;;;17.70;99.90;;;;;;5032692;28;20453;-67
2021/07/12 01:05:48;;;;;;;1999.90;999.90;;;17.70;99.90;;;;;;5032314;28;20830;-66
2021/07/12 01:08:14;;;;;;;1999.90;999.90;;;17.60;99.90;;;;;;5032149;28;20464;-66
2021/07/12 01:10:44;;;;;;;1999.90;999.90;;;17.60;99.90;;;;;;5032373;28;20920;-66
2021/07/12 01:13:20;;;;;;;1999.90;999.90;;;17.60;99.90;;;;;;5032437;28;20251;-67
2021/07/12 01:16:07;;;;;;;1999.90;999.90;;;17.50;99.90;;;;;;5032060;28;20410;-66
2021/07/12 01:18:52;;;;;;;1999.90;999.90;;;17.60;99.90;;;;;;5032318;28;20476;-66
2021/07/12 01:21:48;;;;;;;1999.90;999.90;;;17.50;99.90;;;;;;5032220;28;20410;-67
2021/07/12 01:24:35;;;;;;;1999.90;999.90;;;17.60;99.90;;;;;;5031991;28;20912;-66
2021/07/12 01:27:09;;;;;;;1999.90;999.90;;;17.50;99.90;;;;;;5032100;28;20445;-66
2021/07/12 01:30:03;;;;;;;1999.90;999.90;;;17.50;99.90;;;;;;5032015;28;20445;-66
2021/07/12 01:33:05;;;;;;;1999.90;999.90;;;17.50;99.90;;;;;;5032104;28;20393;-67
2021/07/12 01:35:35;;;;;;;1999.90;999.90;;;17.40;99.90;;;;;;5031737;28;20429;-66
2021/07/12 01:38:09;;;;;;;1999.90;999.90;;;17.30;99.90;;;;;;5031964;28;20949;-66
2021/07/12 01:40:59;;;;;;;1999.90;999.90;;;17.30;99.90;;;;;;5032055;28;20402;-66
2021/07/12 01:43:39;;;;;;;1999.90;999.90;;;17.40;99.90;;;;;;5031971;28;20397;-67
2021/07/12 01:46:27;;;;;;;1999.90;999.90;;;17.30;99.90;;;;;;5031524;28;20397;-67
2021/07/12 01:49:08;;;;;;;1999.90;999.90;;;17.20;99.90;;;;;;5031915;28;20446;-66
2021/07/12 01:52:00;;;;;;;1999.90;999.90;;;17.20;99.90;;;;;;5032038;28;20404;-66
2021/07/12 01:54:38;;;;;;;1999.90;999.90;;;17.20;99.90;;;;;;5031604;28;20401;-66
2021/07/12 01:57:25;;;;;;;1999.90;999.90;;;17.20;99.90;;;;;;5031824;28;20460;-67
2021/07/12 02:00:04;;;;;;;1999.90;999.90;;;17.20;99.90;;;;;;5031782;28;20821;-66
2021/07/12 02:02:32;;;;;;;1999.90;999.90;;;17.10;99.90;;;;;;5031824;28;20402;-66
2021/07/12 02:05:02;;;;;;;1999.90;999.90;;;17.20;99.90;;;;;;5031658;28;20410;-66
2021/07/12 02:07:28;;;;;;;1999.90;999.90;;;17.10;99.90;;;;;;5031628;28;20504;-66
2021/07/12 02:09:55;;;;;;;1999.90;999.90;;;17.00;99.90;;;;;;5031712;28;20402;-67
2021/07/12 02:12:21;;;;;;;1999.90;999.90;;;17.00;99.90;;;;;;5031747;28;20432;-66
2021/07/12 02:14:48;;;;;;;1999.90;999.90;;;17.00;99.90;;;;;;5031407;28;20392;-66
2021/07/12 02:17:15;;;;;;;1999.90;999.90;;;17.00;99.90;;;;;;5031589;28;20496;-67
2021/07/12 02:19:42;;;;;;;1999.90;999.90;;;17.00;99.90;;;;;;5031881;28;20439;-66
2021/07/12 02:22:09;;;;;;;1999.90;999.90;;;17.00;99.90;;;;;;5031689;28;20438;-66
2021/07/12 02:24:36;;;;;;;1999.90;999.90;;;16.90;99.90;;;;;;5031270;28;20406;-67
2021/07/12 02:27:03;;;;;;;1999.90;999.90;;;16.90;99.90;;;;;;5031524;28;20491;-66
2021/07/12 02:29:31;;;;;;;1999.90;999.90;;;16.90;99.90;;;;;;5031267;28;20457;-66
2021/07/12 02:31:58;;;;;;;1999.90;999.90;;;16.90;99.90;;;;;;5031483;28;20417;-66
2021/07/12 02:34:25;;;;;;;1999.90;999.90;;;16.90;99.90;;;;;;5031362;28;20407;-66
2021/07/12 02:36:53;;;;;;;1999.90;999.90;;;16.80;99.90;;;;;;5031586;28;20559;-66
2021/07/12 02:39:20;;;;;;;1999.90;999.90;;;16.90;99.90;;;;;;5031450;28;20795;-66
2021/07/12 02:41:47;;;;;;;1999.90;999.90;;;16.90;99.90;;;;;;5031449;28;20395;-66
2021/07/12 02:44:15;;;;;;;1999.90;999.90;;;16.90;99.90;;;;;;5031082;28;20409;-67
2021/07/12 02:46:41;;;;;;;1999.90;999.90;;;16.80;99.90;;;;;;5031354;28;20949;-66
2021/07/12 02:49:07;;;;;;;1999.90;999.90;;;16.80;99.90;;;;;;5031506;28;20457;-66
2021/07/12 02:51:52;;;;;;;1999.90;999.90;;;16.80;99.90;;;;;;5031337;28;20402;-66
2021/07/12 02:54:24;;;;;;;1999.90;999.90;;;16.90;99.90;;;;;;5031102;28;20761;-66
2021/07/12 02:56:50;;;;;;;1999.90;999.90;;;16.90;99.90;;;;;;5032267;28;20467;-67
2021/07/12 02:59:16;;;;;;;1999.90;999.90;;;16.80;99.90;;;;;;5034729;28;20441;-67
2021/07/12 03:01:42;;;;;;;1999.90;999.90;;;16.90;99.90;;;;;;5034831;28;20172;-66
2021/07/12 03:04:07;;;;;;;1999.90;999.90;;;16.90;99.90;;;;;;5034607;28;20425;-66
2021/07/12 03:06:34;;;;;;;1999.90;999.90;;;16.70;99.90;;;;;;5034891;28;20186;-68
2021/07/12 03:09:13;;;;;;;1999.90;999.90;;;16.70;99.90;;;;;;5034794;28;20309;-68
2021/07/12 03:11:47;;;;;;;1999.90;999.90;;;16.80;99.90;;;;;;5034784;28;20432;-68
2021/07/12 03:14:15;;;;;;;1999.90;999.90;;;16.80;99.90;;;;;;5034384;28;20451;-68
2021/07/12 03:16:42;;;;;;;1999.90;999.90;;;16.70;99.90;;;;;;5034584;28;20455;-67
2021/07/12 03:19:14;;;;;;;1999.90;999.90;;;16.70;99.90;;;;;;5034524;28;20924;-67
2021/07/12 03:21:42;;;;;;;1999.90;999.90;;;16.60;99.90;;;;;;5034559;28;20403;-66
2021/07/12 03:24:09;;;;;;;1999.90;999.90;;;16.60;99.90;;;;;;5034215;28;20803;-66
2021/07/12 03:26:41;;;;;;;1999.90;999.90;;;16.60;99.90;;;;;;5034397;28;20487;-67
2021/07/12 03:29:07;;;;;;;1999.90;999.90;;;16.50;99.90;;;;;;5034613;28;20446;-66
2021/07/12 03:31:34;;;;;;;1999.90;999.90;;;16.50;99.90;;;;;;5034308;28;20407;-66
2021/07/12 03:34:00;;;;;;;1999.90;999.90;;;16.50;99.90;;;;;;5034003;28;20433;-66
2021/07/12 03:36:29;;;;;;;1999.90;999.90;;;16.50;99.90;;;;;;5034164;28;20497;-66
2021/07/12 03:38:55;;;;;;;1999.90;999.90;;;16.50;99.90;;;;;;5034031;28;20481;-66
2021/07/12 03:41:22;;;;;;;1999.90;999.90;;;16.50;99.90;;;;;;5034060;28;20887;-66
2021/07/12 03:43:47;;;;;;;1999.90;999.90;;;16.50;99.90;;;;;;5033859;28;20208;-66
2021/07/12 03:46:13;;;;;;;1999.90;999.90;;;16.50;99.90;;;;;;5033694;28;20410;-67
2021/07/12 03:48:41;;;;;;;1999.90;999.90;;;16.50;99.90;;;;;;5033919;28;20197;-66
2021/07/12 03:51:10;;;;;;;1999.90;999.90;;;16.50;99.90;;;;;;5034501;28;20164;-67
2021/07/12 03:53:36;;;;;;;1999.90;999.90;;;16.50;99.90;;;;;;5033837;28;20411;-66
2021/07/12 03:56:03;;;;;;;1999.90;999.90;;;16.50;99.90;;;;;;5033730;28;20406;-65
2021/07/12 03:58:29;;;;;;;1999.90;999.90;;;16.50;99.90;;;;;;5033671;28;20481;-68
2021/07/12 04:00:55;;;;;;;1999.90;999.90;;;16.50;99.90;;;;;;5033747;28;20407;-65
2021/07/12 04:03:20;;;;;;;1999.90;999.90;;;16.50;99.90;;;;;;5033670;28;20583;-65
2021/07/12 04:05:46;;;;;;;1999.90;999.90;;;16.60;99.90;;;;;;5033325;28;20270;-65
2021/07/12 04:08:11;;;;;;;1999.90;999.90;;;16.60;99.90;;;;;;5032395;28;20202;-65
2021/07/12 04:10:38;;;;;;;1999.90;999.90;;;16.60;99.90;;;;;;5033688;28;20263;-68
2021/07/12 04:13:04;;;;;;;1999.90;999.90;;;16.60;99.90;;;;;;5033368;28;20185;-66
2021/07/12 04:15:30;;;;;;;1999.90;999.90;;;16.70;99.90;;;;;;5033157;28;20411;-65
2021/07/12 04:17:56;;;;;;;1999.90;999.90;;;16.70;99.90;;;;;;5033207;28;20492;-67
2021/07/12 04:20:21;;;;;;;1999.90;999.90;;;16.60;99.90;;;;;;5033323;28;20752;-68
2021/07/12 04:22:47;;;;;;;1999.90;999.90;;;16.70;99.90;;;;;;5033433;28;20174;-65
2021/07/12 04:25:13;;;;;;;1999.90;999.90;;;16.70;99.90;;;;;;5033019;28;20168;-65
2021/07/12 04:27:40;;;;;;;1999.90;999.90;;;16.80;99.90;;;;;;5032870;28;20204;-66
2021/07/12 04:30:07;;;;;;;1999.90;999.90;;;16.80;99.90;;;;;;5033169;28;20416;-67
2021/07/12 04:32:34;;;;;;;1999.90;999.90;;;16.90;99.90;;;;;;5033082;28;20412;-65
2021/07/12 04:34:59;;;;;;;1999.90;999.90;;;16.80;99.90;;;;;;5032811;28;20821;-65
2021/07/12 04:37:25;;;;;;;1999.90;999.90;;;16.90;99.90;;;;;;5033052;28;20408;-65
2021/07/12 04:39:51;;;;;;;1999.90;999.90;;;17.00;99.90;;;;;;5032966;28;20201;-65
2021/07/12 04:42:16;;;;;;;1999.90;999.90;;;17.10;99.90;;;;;;5032866;28;20175;-66
2021/07/12 04:44:42;;;;;;;1999.90;999.90;;;17.10;99.90;;;;;;5032640;28;20177;-68
2021/07/12 04:47:08;;;;;;;1999.90;999.90;;;17.10;99.90;;;;;;5032856;28;20184;-65
2021/07/12 04:49:34;;;;;;;1999.90;999.90;;;17.30;99.90;;;;;;5032710;28;20423;-66
2021/07/12 04:52:00;;;;;;;1999.90;999.90;;;17.30;99.90;;;;;;5032759;28;20200;-65
2021/07/12 04:54:26;;;;;;;1999.90;999.90;;;17.30;99.90;;;;;;5032474;28;20225;-65
2021/07/12 04:56:52;;;;;;;1999.90;999.90;;;17.40;99.90;;;;;;5032684;28;20405;-64
2021/07/12 04:59:24;;;;;;;1999.90;999.90;;;17.40;99.90;;;;;;5032588;28;20191;-65
2021/07/12 05:01:49;;;;;;;1999.90;999.90;;;17.40;99.90;;;;;;5032593;28;20179;-65
2021/07/12 05:04:15;;;;;;;1999.90;999.90;;;17.50;99.90;;;;;;5032223;28;20935;-65
2021/07/12 05:06:41;;;;;;;1999.90;999.90;;;17.60;99.90;;;;;;5032416;28;20190;-66
2021/07/12 05:09:06;;;;;;;1999.90;999.90;;;17.60;99.90;;;;;;5014824;28;20187;-64
2021/07/12 05:11:33;;;;;;;1999.90;999.90;;;17.70;99.90;;;;;;5032419;28;20179;-65
2021/07/12 05:13:59;;;;;;;1999.90;999.90;;;17.70;99.90;;;;;;5032089;28;20164;-67
2021/07/12 05:16:25;;;;;;;1999.90;999.90;;;17.80;99.90;;;;;;5032262;28;20413;-67
2021/07/12 05:18:51;;;;;;;1999.90;999.90;;;17.80;99.90;;;;;;5032235;28;20935;-66
2021/07/12 05:21:16;;;;;;;1999.90;999.90;;;17.90;99.90;;;;;;5032016;28;20204;-65
2021/07/12 05:23:42;;;;;;;1999.90;999.90;;;18.00;99.90;;;;;;5032135;28;20178;-65
2021/07/12 05:26:08;;;;;;;1999.90;999.90;;;18.00;99.90;;;;;;5032038;28;20171;-66
2021/07/12 05:28:36;;;;;;;1999.90;999.90;;;18.00;99.90;;;;;;5032048;28;20451;-65
2021/07/12 05:31:01;;;;;;;1999.90;999.90;;;18.10;99.90;;;;;;5032074;28;20408;-66
2021/07/12 05:33:27;;;;;;;1999.90;999.90;;;18.00;99.90;;;;;;5032205;28;20745;-68
2021/07/12 05:35:53;;;;;;;1999.90;999.90;;;18.10;99.90;;;;;;5031995;28;20685;-65
2021/07/12 05:38:18;;;;;;;1999.90;999.90;;;18.00;99.90;;;;;;5032017;28;20201;-65
2021/07/12 05:40:44;;;;;;;1999.90;999.90;;;18.20;99.90;;;;;;5032022;28;20181;-66
2021/07/12 05:43:10;;;;;;;1999.90;999.90;;;18.30;99.90;;;;;;5032100;28;20221;-65
2021/07/12 05:45:35;;;;;;;1999.90;999.90;;;18.30;99.90;;;;;;5031664;28;20175;-68
2021/07/12 05:48:01;;;;;;;1999.90;999.90;;;18.40;99.90;;;;;;5031953;28;20236;-65
2021/07/12 05:50:27;;;;;;;1999.90;999.90;;;18.40;99.90;;;;;;5032007;28;20164;-65
2021/07/12 05:52:53;;;;;;;1999.90;999.90;;;18.50;99.90;;;;;;5031829;28;20467;-66
2021/07/12 05:55:19;;;;;;;1999.90;999.90;;;18.50;99.90;;;;;;5031565;28;20196;-65
2021/07/12 05:57:44;;;;;;;1999.90;999.90;;;18.60;99.90;;;;;;5031933;28;20209;-65
2021/07/12 06:00:12;;;;;;;1999.90;999.90;;;18.60;99.90;;;;;;5031812;28;20415;-67
2021/07/12 06:02:42;;;;;;;1999.90;999.90;;;18.60;99.90;;;;;;5031817;28;20173;-66
2021/07/12 06:05:10;;;;;;;1999.90;999.90;;;18.70;99.90;;;;;;5031571;28;20483;-68
2021/07/12 06:07:35;;;;;;;1999.90;999.90;;;18.70;99.90;;;;;;5031589;28;20459;-65
2021/07/12 06:10:03;;;;;;;1999.90;999.90;;;18.70;99.90;;;;;;5031736;28;20788;-66
2021/07/12 06:12:29;;;;;;;1999.90;999.90;;;18.70;99.90;;;;;;5031762;28;20631;-67
2021/07/12 06:14:54;;;;;;;1999.90;999.90;;;18.70;99.90;;;;;;5031381;28;20405;-65
2021/07/12 06:17:20;;;;;;;1999.90;999.90;;;18.70;99.90;;;;;;5031767;28;20168;-67
2021/07/12 06:19:46;;;;;;;1999.90;999.90;;;18.70;99.90;;;;;;5031748;28;20672;-66
2021/07/12 06:22:11;;;;;;;1999.90;999.90;;;18.70;99.90;;;;;;5031884;28;20264;-66
2021/07/12 06:24:37;;;;;;;1999.90;999.90;;;18.70;99.90;;;;;;5031428;28;20172;-66
2021/07/12 06:27:03;;;;;;;1999.90;999.90;;;18.80;99.90;;;;;;5031704;28;20203;-66
2021/07/12 06:29:29;;;;;;;1999.90;999.90;;;18.70;99.90;;;;;;5031427;28;20199;-67
2021/07/12 06:31:55;;;;;;;1999.90;999.90;;;18.80;99.90;;;;;;5032679;28;20413;-67
2021/07/12 06:34:22;;;;;;;1999.90;999.90;;;18.80;99.90;;;;;;5035093;28;20175;-67
2021/07/12 06:36:47;;;;;;;1999.90;999.90;;;18.80;99.90;;;;;;5035326;28;20406;-67
2021/07/12 06:39:13;;;;;;;1999.90;999.90;;;18.90;99.90;;;;;;5035131;28;20476;-67
2021/07/12 06:41:39;;;;;;;1999.90;999.90;;;19.00;99.90;;;;;;5035302;28;20676;-67
2021/07/12 06:44:04;;;;;;;1999.90;999.90;;;19.10;99.90;;;;;;5034949;28;20553;-67
2021/07/12 06:46:31;;;;;;;1999.90;999.90;;;19.20;99.90;;;;;;5035179;28;20198;-67
2021/07/12 06:48:56;;;;;;;1999.90;999.90;;;19.30;99.90;;;;;;5035263;28;20435;-67
2021/07/12 06:51:22;;;;;;;1999.90;999.90;;;19.40;99.90;;;;;;5035058;28;20417;-67
2021/07/12 06:53:48;;;;;;;1999.90;999.90;;;19.50;99.90;;;;;;5034798;28;20173;-66
2021/07/12 06:56:14;;;;;;;1999.90;999.90;;;19.70;99.90;;;;;;5035026;28;20702;-66
2021/07/12 06:58:40;;;;;;;1999.90;999.90;;;19.80;99.90;;;;;;5034545;28;20648;-66
2021/07/12 07:01:05;;;;;;;1999.90;999.90;;;19.90;99.90;;;;;;5034827;28;20453;-66
2021/07/12 07:03:31;;;;;;;1999.90;999.90;;;20.10;99.90;;;;;;5034781;28;20403;-67
2021/07/12 07:05:57;;;;;;;1999.90;999.90;;;20.20;99.90;;;;;;5034526;28;20257;-66
2021/07/12 07:08:22;;;;;;;1999.90;999.90;;;20.30;99.90;;;;;;5034552;28;20694;-67
2021/07/12 07:10:49;;;;;;;1999.90;999.90;;;20.40;99.90;;;;;;5034561;28;20254;-66
2021/07/12 07:13:14;;;;;;;1999.90;999.90;;;20.50;99.90;;;;;;5034138;28;20204;-67
2021/07/12 07:15:40;;;;;;;1999.90;999.90;;;20.70;99.90;;;;;;5034330;28;20411;-66
2021/07/12 07:18:06;;;;;;;1999.90;999.90;;;20.80;99.90;;;;;;5034462;28;20192;-65
2021/07/12 07:20:31;;;;;;;1999.90;999.90;;;20.90;99.90;;;;;;5034521;28;20225;-67
2021/07/12 07:22:57;;;;;;;1999.90;999.90;;;21.10;99.90;;;;;;5034454;28;20163;-67
2021/07/12 07:25:23;;;;;;;1999.90;999.90;;;21.20;99.90;;;;;;5034104;28;20174;-67
2021/07/12 07:27:48;;;;;;;1999.90;999.90;;;21.30;99.90;;;;;;5034037;28;20222;-67
2021/07/12 07:30:15;;;;;;;1999.90;999.90;;;21.50;99.90;;;;;;5034621;28;20256;-66
2021/07/12 07:32:41;;;;;;;1999.90;999.90;;;21.60;99.90;;;;;;5034306;28;20627;-69
2021/07/12 07:35:08;;;;;;;1999.90;999.90;;;21.60;99.90;;;;;;5034003;28;20439;-67
2021/07/12 07:37:34;;;;;;;1999.90;999.90;;;21.70;99.90;;;;;;5034193;28;20413;-67
2021/07/12 07:40:00;;;;;;;1999.90;999.90;;;21.70;99.90;;;;;;5034149;28;20412;-67
2021/07/12 07:42:26;;;;;;;1999.90;999.90;;;21.70;99.90;;;;;;5033838;28;20486;-67
2021/07/12 07:44:51;;;;;;;1999.90;999.90;;;21.80;99.90;;;;;;5033943;28;20253;-66
2021/07/12 07:47:18;;;;;;;1999.90;999.90;;;21.80;99.90;;;;;;5033943;28;21060;-67
2021/07/12 07:49:44;;;;;;;1999.90;999.90;;;21.90;99.90;;;;;;5033939;28;20185;-67
2021/07/12 07:52:09;;;;;;;1999.90;999.90;;;22.00;99.90;;;;;;5033903;28;20411;-67
2021/07/12 07:54:35;;;;;;;1999.90;999.90;;;22.00;99.90;;;;;;5033588;28;20174;-67
2021/07/12 07:57:01;;;;;;;1999.90;999.90;;;22.00;99.90;;;;;;5033785;28;20691;-67
2021/07/12 07:59:26;;;;;;;1999.90;999.90;;;22.10;99.90;;;;;;5033710;28;20579;-68
2021/07/12 08:01:52;;;;;;;1999.90;999.90;;;22.20;99.90;;;;;;5033751;28;20173;-67
2021/07/12 08:04:18;;;;;;;1999.90;999.90;;;22.30;99.90;;;;;;5033427;28;20172;-67
2021/07/12 08:06:43;;;;;;;1999.90;999.90;;;22.40;99.90;;;;;;5033476;28;20258;-67
2021/07/12 08:09:09;;;;;;;1999.90;999.90;;;22.40;99.90;;;;;;5033496;28;20198;-66
2021/07/12 08:11:35;;;;;;;1999.90;999.90;;;22.40;99.90;;;;;;5033464;28;20223;-67
2021/07/12 08:14:01;;;;;;;1999.90;999.90;;;22.50;99.90;;;;;;5033234;28;20173;-67
2021/07/12 08:16:27;;;;;;;1999.90;999.90;;;22.60;99.90;;;;;;5033570;28;20408;-67
2021/07/12 08:18:53;;;;;;;1999.90;999.90;;;22.70;99.90;;;;;;5033281;28;21003;-67
2021/07/12 08:21:18;;;;;;;1999.90;999.90;;;22.80;99.90;;;;;;5033217;28;20167;-67
2021/07/12 08:23:44;;;;;;;1999.90;999.90;;;22.90;99.90;;;;;;5033109;28;20166;-67
2021/07/12 08:26:11;;;;;;;1999.90;999.90;;;23.00;99.90;;;;;;5033060;28;20190;-67
2021/07/12 08:28:38;;;;;;;1999.90;999.90;;;23.10;99.90;;;;;;5033102;28;20201;-67
2021/07/12 08:31:04;;;;;;;1999.90;999.90;;;23.20;99.90;;;;;;5033144;28;20413;-67
2021/07/12 08:33:30;;;;;;;1999.90;999.90;;;23.40;99.90;;;;;;5033202;28;20402;-67
2021/07/12 08:35:56;;;;;;;1999.90;999.90;;;23.50;99.90;;;;;;5032789;28;20399;-66
2021/07/12 08:38:21;;;;;;;1999.90;999.90;;;23.60;99.90;;;;;;5032925;28;20414;-67
2021/07/12 08:40:48;;;;;;;1999.90;999.90;;;23.60;99.90;;;;;;5032986;28;20225;-67
2021/07/12 08:43:16;;;;;;;1999.90;999.90;;;23.80;99.90;;;;;;5033108;28;20175;-67
2021/07/12 08:45:42;;;;;;;1999.90;999.90;;;23.90;99.90;;;;;;5032632;28;20374;-67
2021/07/12 08:48:08;;;;;;;1999.90;999.90;;;24.00;99.90;;;;;;5032631;28;20468;-67
2021/07/12 08:50:34;;;;;;;1999.90;999.90;;;24.00;99.90;;;;;;5032612;28;20165;-67
2021/07/12 08:52:59;;;;;;;1999.90;999.90;;;24.10;99.90;;;;;;5031135;28;20180;-68
2021/07/12 08:55:25;;;;;;;1999.90;999.90;;;24.10;99.90;;;;;;5031474;28;20531;-68
2021/07/12 08:58:00;;;;;;;1999.90;999.90;;;24.10;99.90;;;;;;5032244;28;20202;-68
2021/07/12 09:00:46;;;;;;;1999.90;999.90;;;24.20;99.90;;;;;;5032311;28;20743;-68
2021/07/12 09:03:50;;;;;;;1999.90;999.90;;;24.30;99.90;;;;;;5032192;28;20442;-67
2021/07/12 09:06:18;;;;;;;1999.90;999.90;;;24.30;99.90;;;;;;5032113;28;20543;-68
2021/07/12 09:08:53;;;;;;;1999.90;999.90;;;24.50;99.90;;;;;;5032544;28;20427;-68
2021/07/12 09:11:31;;;;;;;1999.90;999.90;;;24.60;99.90;;;;;;5032397;28;20381;-68
2021/07/12 09:14:03;;;;;;;1999.90;999.90;;;24.70;99.90;;;;;;5031842;28;20381;-67
2021/07/12 09:16:47;;;;;;;1999.90;999.90;;;24.80;99.90;;;;;;5032207;28;20399;-67
2021/07/12 09:19:25;;;;;;;1999.90;999.90;;;24.90;99.90;;;;;;5032139;28;20739;-67
2021/07/12 09:22:01;;;;;;;1999.90;999.90;;;25.00;99.90;;;;;;5032131;28;20884;-67
2021/07/12 09:24:34;;;;;;;1999.90;999.90;;;25.30;99.90;;;;;;5031818;28;20421;-67
2021/07/12 09:27:02;;;;;;;1999.90;999.90;;;25.30;99.90;;;;;;5031971;28;20528;-68
2021/07/12 09:29:34;;;;;;;1999.90;999.90;;;25.40;99.90;;;;;;5032137;28;20447;-67
2021/07/12 09:32:03;;;;;;;1999.90;999.90;;;25.50;99.90;;;;;;5031594;28;20399;-65
2021/07/12 09:34:29;;;;;;;1999.90;999.90;;;25.50;99.90;;;;;;5031464;28;20401;-67
2021/07/12 09:36:55;;;;;;;1999.90;999.90;;;25.60;99.90;;;;;;5031649;28;20385;-65
2021/07/12 09:39:28;;;;;;;1999.90;999.90;;;25.80;99.90;;;;;;5031859;28;20238;-68
2021/07/12 09:41:56;;;;;;;1999.90;999.90;;;25.90;99.90;;;;;;5031773;28;20473;-66
2021/07/12 09:44:25;;;;;;;1999.90;999.90;;;26.10;99.90;;;;;;5031335;28;20473;-66
2021/07/12 09:46:51;;;;;;;1999.90;999.90;;;26.20;99.90;;;;;;5031443;28;20453;-65
2021/07/12 09:49:22;;;;;;;1999.90;999.90;;;26.30;99.90;;;;;;5031510;28;20419;-66
2021/07/12 09:51:52;;;;;;;1999.90;999.90;;;26.50;99.90;;;;;;5031608;28;20370;-66
2021/07/12 09:54:25;;;;;;;1999.90;999.90;;;26.60;99.90;;;;;;5031266;28;20406;-66
2021/07/12 09:56:54;;;;;;;1999.90;999.90;;;26.60;99.90;;;;;;5031487;28;20378;-66
2021/07/12 09:59:21;;;;;;;1999.90;999.90;;;26.60;99.90;;;;;;5031394;28;20423;-65
2021/07/12 10:01:49;;;;;;;1999.90;999.90;;;26.70;99.90;;;;;;5031399;28;20408;-65
2021/07/12 10:04:15;;;;;;;1999.90;999.90;;;26.70;99.90;;;;;;5031084;28;20498;-66
2021/07/12 10:06:44;;;;;;;1999.90;999.90;;;26.80;99.90;;;;;;5033960;28;20438;-65
2021/07/12 10:09:10;;;;;;;1999.90;999.90;;;26.80;99.90;;;;;;5035356;28;20422;-66
2021/07/12 10:11:35;;;;;;;1999.90;999.90;;;27.00;99.90;;;;;;5035430;28;20370;-65
2021/07/12 10:14:03;;;;;;;1999.90;999.90;;;27.10;99.90;;;;;;5035098;28;20403;-66
2021/07/12 10:16:29;;;;;;;1999.90;999.90;;;27.20;99.90;;;;;;5035332;28;20172;-66
2021/07/12 10:18:55;;;;;;;1999.90;999.90;;;27.20;99.90;;;;;;5035203;28;20788;-65
2021/07/12 10:21:21;;;;;;;1999.90;999.90;;;27.20;99.90;;;;;;5035177;28;20859;-66
2021/07/12 10:23:54;;;;;;;1999.90;999.90;;;27.10;99.90;;;;;;5035083;28;20786;-66
2021/07/12 10:26:55;;;;;;;1999.90;999.90;;;27.20;99.90;;;;;;5035126;28;20373;-66
2021/07/12 10:29:30;;;;;;;1999.90;999.90;;;27.40;99.90;;;;;;5035008;28;20435;-65
2021/07/12 10:32:13;;;;;;;1999.90;999.90;;;27.60;99.90;;;;;;5035066;28;20369;-65
2021/07/12 10:34:52;;;;;;;1999.90;999.90;;;27.50;99.90;;;;;;5034799;28;20413;-65
2021/07/12 10:37:21;;;;;;;1999.90;999.90;;;27.60;99.90;;;;;;5034919;28;20476;-66
2021/07/12 10:40:09;;;;;;;1999.90;999.90;;;27.80;99.90;;;;;;5034950;28;20931;-65
2021/07/12 10:42:44;;;;;;;1999.90;999.90;;;28.00;99.90;;;;;;5034901;28;20380;-66
2021/07/12 10:45:21;;;;;;;1999.90;999.90;;;28.10;99.90;;;;;;5034604;28;20890;-66
2021/07/12 10:47:59;;;;;;;1999.90;999.90;;;28.20;99.90;;;;;;5034459;28;20417;-68
2021/07/12 10:50:37;;;;;;;1999.90;999.90;;;28.40;99.90;;;;;;5034784;28;20449;-68
2021/07/12 10:53:23;;;;;;;1999.90;999.90;;;28.40;99.90;;;;;;5034646;28;20413;-65
2021/07/12 10:55:58;;;;;;;1999.90;999.90;;;28.60;99.90;;;;;;5034292;28;20404;-65
2021/07/12 10:58:26;;;;;;;1999.90;999.90;;;28.70;99.90;;;;;;5034490;28;20957;-65
2021/07/12 11:00:56;;;;;;;1999.90;999.90;;;28.60;99.90;;;;;;5034482;28;20410;-66
2021/07/12 11:03:38;;;;;;;1999.90;999.90;;;28.60;99.90;;;;;;5034571;28;20482;-66
2021/07/12 11:06:05;;;;;;;1999.90;999.90;;;28.50;99.90;;;;;;5034156;28;20966;-68
2021/07/12 11:08:45;;;;;;;1999.90;999.90;;;28.50;99.90;;;;;;5033924;28;20532;-67
2021/07/12 11:11:33;;;;;;;1999.90;999.90;;;28.20;99.90;;;;;;5034145;28;20419;-66
2021/07/12 11:14:18;;;;;;;1999.90;999.90;;;28.10;99.90;;;;;;5023307;28;20815;-66
2021/07/12 11:16:45;;;;;;;1999.90;999.90;;;28.00;99.90;;;;;;5034262;28;20464;-66
2021/07/12 11:19:19;;;;;;;1999.90;999.90;;;28.00;99.90;;;;;;5033490;28;20438;-65
2021/07/12 11:21:45;;;;;;;1999.90;999.90;;;27.90;99.90;;;;;;5034155;28;20439;-66
2021/07/12 11:24:11;;;;;;;1999.90;999.90;;;27.90;99.90;;;;;;5033713;28;20419;-65
2021/07/12 11:26:44;;;;;;;1999.90;999.90;;;28.10;99.90;;;;;;5033953;28;20447;-66
2021/07/12 11:29:27;;;;;;;1999.90;999.90;;;28.40;99.90;;;;;;5033830;28;20700;-69
2021/07/12 11:31:55;;;;;;;1999.90;999.90;;;28.40;99.90;;;;;;5027381;28;20418;-69
2021/07/12 11:34:25;;;;;;;1999.90;999.90;;;28.30;99.90;;;;;;5032252;28;20492;-65
2021/07/12 11:37:11;;;;;;;1999.90;999.90;;;28.20;99.90;;;;;;5032045;28;20409;-68
2021/07/12 11:39:51;;;;;;;1999.90;999.90;;;28.00;99.90;;;;;;5032239;28;20413;-66
2021/07/12 11:42:22;;;;;;;1999.90;999.90;;;27.70;99.90;;;;;;5032077;28;20456;-66
2021/07/12 11:44:58;;;;;;;1999.90;999.90;;;27.40;99.90;;;;;;5031577;28;20393;-66
2021/07/12 11:47:28;;;;;;;1999.90;999.90;;;27.30;99.90;;;;;;5032084;28;20425;-65
2021/07/12 11:50:00;;;;;;;1999.90;999.90;;;27.30;99.90;;;;;;5032106;28;20422;-66
2021/07/12 11:52:27;;;;;;;1999.90;999.90;;;27.20;99.90;;;;;;5031281;28;20362;-66
2021/07/12 11:54:57;;;;;;;1999.90;999.90;;;27.30;99.90;;;;;;5031747;28;20415;-66
2021/07/12 11:57:23;;;;;;;1999.90;999.90;;;27.30;99.90;;;;;;5032084;28;20406;-68
2021/07/12 11:59:49;;;;;;;1999.90;999.90;;;27.40;99.90;;;;;;5031440;28;21236;-66
2021/07/12 12:02:16;;;;;;;1999.90;999.90;;;27.30;99.90;;;;;;5031698;28;20222;-67
2021/07/12 12:04:47;;;;;;;1999.90;999.90;;;27.20;99.90;;;;;;5031418;28;20179;-68
2021/07/12 12:07:35;;;;;;;1999.90;999.90;;;27.10;99.90;;;;;;5031082;28;20429;-65